Time;durP1;ratioP1;P1;durP2;ratioP2;P2;SDS_P1;SDS_P2;PMS_P1;PMS_P2;Temp;Humidity;BMP_temperature;BMP_pressure;BME280_temperature;BME280_humidity;BME280_pressure;Samples;Min_cycle;Max_cycle;Signal;HPM_P1;HPM_P2
2023/09/06 00:01:06;;;;;;;23.20;20.70;;;;;;;12.47;100.00;99714.07;109714;1251;59007;-71
2023/09/06 00:03:39;;;;;;;23.00;20.50;;;;;;;12.44;100.00;99717.83;109722;1251;65774;-71
2023/09/06 00:06:06;;;;;;;24.70;19.60;;;;;;;12.41;100.00;99722.67;109669;1250;59039;-71
2023/09/06 00:08:34;;;;;;;21.10;18.80;;;;;;;12.39;100.00;99726.56;109663;1250;63701;-71
2023/09/06 00:11:04;;;;;;;21.90;19.60;;;;;;;12.37;100.00;99729.17;109654;1251;58995;-71
2023/09/06 00:13:32;;;;;;;21.50;19.40;;;;;;;12.35;100.00;99728.77;109660;1251;59000;-71
2023/09/06 00:16:03;;;;;;;22.30;19.90;;;;;;;12.30;100.00;99727.41;109644;1250;66036;-71
2023/09/06 00:18:30;;;;;;;22.50;19.50;;;;;;;12.27;100.00;99721.75;109395;1251;59018;-71
2023/09/06 00:20:57;;;;;;;24.10;20.50;;;;;;;12.23;100.00;99720.92;109627;1251;64234;-71
2023/09/06 00:23:25;;;;;;;22.50;19.90;;;;;;;12.19;100.00;99723.33;109648;1250;58942;-71
2023/09/06 00:25:53;;;;;;;23.00;19.50;;;;;;;12.15;100.00;99725.76;109658;1251;59604;-71
2023/09/06 00:28:20;;;;;;;22.00;19.80;;;;;;;12.10;100.00;99728.54;109643;1251;65218;-71
2023/09/06 00:30:47;;;;;;;25.70;21.40;;;;;;;12.05;100.00;99726.70;109699;1251;58983;-71
2023/09/06 00:33:13;;;;;;;22.10;19.70;;;;;;;12.02;100.00;99724.36;109651;1251;62524;-71
2023/09/06 00:35:41;;;;;;;21.50;19.20;;;;;;;11.99;100.00;99724.02;109668;1251;59038;-71
2023/09/06 00:38:08;;;;;;;22.70;20.30;;;;;;;11.96;100.00;99721.73;109625;1251;59062;-71
2023/09/06 00:40:36;;;;;;;22.30;19.90;;;;;;;11.94;100.00;99721.45;109641;1251;65067;-71
2023/09/06 00:43:05;;;;;;;22.70;20.10;;;;;;;11.93;100.00;99721.35;109682;1251;59099;-71
2023/09/06 00:45:53;;;;;;;21.70;19.40;;;;;;;11.92;100.00;99720.70;109644;1251;63805;-71
2023/09/06 00:48:22;;;;;;;25.10;22.00;;;;;;;11.90;100.00;99725.64;109678;1251;58936;-71
2023/09/06 00:50:50;;;;;;;20.80;18.60;;;;;;;11.88;100.00;99724.70;109739;1250;59089;-71
2023/09/06 00:53:18;;;;;;;18.60;16.70;;;;;;;11.85;100.00;99728.95;109658;1250;64943;-71
2023/09/06 00:55:45;;;;;;;18.20;16.30;;;;;;;11.80;100.00;99735.65;109701;1250;60198;-71
2023/09/06 00:58:16;;;;;;;21.40;19.00;;;;;;;11.74;100.00;99736.01;109604;1251;62451;-71
2023/09/06 01:00:44;;;;;;;18.40;16.00;;;;;;;11.70;100.00;99736.59;109680;1250;58970;-72
2023/09/06 01:03:11;;;;;;;18.10;16.20;;;;;;;11.66;100.00;99740.41;109418;1251;58996;-71
2023/09/06 01:05:44;;;;;;;18.10;16.20;;;;;;;11.63;100.00;99740.41;109646;1250;66062;-72
2023/09/06 01:08:18;;;;;;;21.90;19.30;;;;;;;11.60;100.00;99740.23;109674;1251;60172;-70
2023/09/06 01:10:45;;;;;;;19.70;17.50;;;;;;;11.56;100.00;99737.77;109665;1250;64036;-72
2023/09/06 01:13:11;;;;;;;20.60;17.80;;;;;;;11.54;100.00;99731.85;109480;1251;59083;-71
2023/09/06 01:15:44;;;;;;;20.00;17.90;;;;;;;11.52;100.00;99730.88;109642;1250;58984;-71
2023/09/06 01:18:12;;;;;;;17.60;15.90;;;;;;;11.50;100.00;99732.09;109645;1251;66103;-71
2023/09/06 01:20:52;;;;;;;16.80;15.00;;;;;;;11.47;100.00;99727.13;109659;1250;60151;-71
2023/09/06 01:23:41;;;;;;;18.10;16.10;;;;;;;11.42;100.00;99729.15;109438;1251;63795;-71
2023/09/06 01:26:07;;;;;;;18.00;15.90;;;;;;;11.35;100.00;99727.43;109638;1251;58998;-71
2023/09/06 01:28:34;;;;;;;17.60;15.50;;;;;;;11.30;100.00;99727.95;109660;1251;58876;-71
2023/09/06 01:31:01;;;;;;;20.50;17.00;;;;;;;11.24;100.00;99730.21;109713;1250;64910;-71
2023/09/06 01:33:29;;;;;;;20.30;18.00;;;;;;;11.19;100.00;99729.46;109320;1251;59014;-71
2023/09/06 01:35:56;;;;;;;19.60;17.50;;;;;;;11.15;100.00;99725.56;109629;1250;62977;-71
2023/09/06 01:38:23;;;;;;;19.20;17.20;;;;;;;11.14;100.00;99726.71;109688;1250;58989;-71
2023/09/06 01:40:51;;;;;;;23.80;17.80;;;;;;;11.14;100.00;99727.44;109649;1250;58851;-71
2023/09/06 01:43:18;;;;;;;21.30;19.00;;;;;;;11.13;100.00;99732.09;109713;1250;67289;-71
2023/09/06 01:45:54;;;;;;;19.90;17.80;;;;;;;11.14;100.00;99729.88;109663;1250;58972;-71
2023/09/06 01:48:21;;;;;;;20.30;18.20;;;;;;;11.15;100.00;99729.70;109672;1251;64163;-71
2023/09/06 01:50:48;;;;;;;20.10;18.10;;;;;;;11.15;100.00;99730.40;109614;1250;59002;-71
2023/09/06 01:53:14;;;;;;;19.40;17.40;;;;;;;11.17;100.00;99729.75;109681;1251;59178;-71
2023/09/06 01:55:42;;;;;;;20.70;18.20;;;;;;;11.17;100.00;99726.14;109654;1251;66571;-71
2023/09/06 01:58:10;;;;;;;19.10;17.10;;;;;;;11.16;100.00;99725.87;109664;1250;60227;-71
2023/09/06 02:00:37;;;;;;;20.70;18.50;;;;;;;11.14;100.00;99721.73;109654;1250;62928;-71
2023/09/06 02:03:06;;;;;;;21.20;19.10;;;;;;;11.13;100.00;99724.84;109624;1250;59072;-71
2023/09/06 02:05:33;;;;;;;19.70;17.70;;;;;;;11.10;100.00;99723.00;109537;1251;59159;-71
2023/09/06 02:08:01;;;;;;;20.60;18.50;;;;;;;11.08;100.00;99716.94;109667;1250;67167;-71
2023/09/06 02:10:28;;;;;;;22.40;17.90;;;;;;;11.05;100.00;99716.92;109572;1250;59976;-71
2023/09/06 02:12:54;;;;;;;20.90;18.70;;;;;;;11.01;100.00;99717.30;109710;1250;64046;-71
2023/09/06 02:15:21;;;;;;;20.60;18.30;;;;;;;10.98;100.00;99717.84;109667;1251;58948;-71
2023/09/06 02:17:47;;;;;;;23.40;19.80;;;;;;;10.96;100.00;99714.92;109654;1250;59608;-71
2023/09/06 02:20:19;;;;;;;22.60;20.10;;;;;;;10.96;100.00;99712.61;109298;1251;58991;-71
2023/09/06 02:22:48;;;;;;;21.90;19.60;;;;;;;10.95;100.00;99715.87;109660;1250;60334;-71
2023/09/06 02:25:16;;;;;;;23.10;20.60;;;;;;;10.95;100.00;99709.48;109621;1250;64031;-71
2023/09/06 02:27:42;;;;;;;23.40;20.60;;;;;;;10.94;100.00;99705.80;109403;1251;59068;-70
2023/09/06 02:30:09;;;;;;;21.70;19.50;;;;;;;10.93;100.00;99707.27;109629;1250;59193;-71
2023/09/06 02:32:36;;;;;;;21.50;18.80;;;;;;;10.92;100.00;99712.69;109644;1250;65992;-71
2023/09/06 02:35:03;;;;;;;19.50;17.50;;;;;;;10.90;100.00;99708.00;109692;1250;58988;-71
2023/09/06 02:37:30;;;;;;;22.00;18.90;;;;;;;10.88;100.00;99707.56;109650;1250;64579;-71
2023/09/06 02:39:56;;;;;;;20.30;18.20;;;;;;;10.86;100.00;99711.58;109359;1256;59046;-71
2023/09/06 02:42:24;;;;;;;20.00;18.00;;;;;;;10.84;100.00;99712.96;109691;1250;58872;-71
2023/09/06 02:44:51;;;;;;;19.70;17.70;;;;;;;10.81;100.00;99714.35;109673;1250;64467;-71
2023/09/06 02:47:25;;;;;;;19.60;17.30;;;;;;;10.77;100.00;99712.64;109664;1250;60216;-71
2023/09/06 02:49:55;;;;;;;19.00;17.10;;;;;;;10.74;100.00;99714.41;109677;1251;62849;-71
2023/09/06 02:52:30;;;;;;;19.00;17.00;;;;;;;10.72;100.00;99718.80;109639;1250;59013;-71
2023/09/06 02:54:57;;;;;;;18.90;16.90;;;;;;;10.70;100.00;99720.33;109667;1250;59021;-71
2023/09/06 02:57:30;;;;;;;18.00;16.20;;;;;;;10.69;100.00;99721.25;109701;1250;66096;-71
2023/09/06 02:59:56;;;;;;;19.70;17.60;;;;;;;10.69;100.00;99722.34;109700;1250;59002;-71
2023/09/06 03:02:23;;;;;;;18.70;16.50;;;;;;;10.67;100.00;99723.17;109416;1251;63891;-71
2023/09/06 03:05:03;;;;;;;17.60;15.80;;;;;;;10.64;100.00;99721.40;109284;1251;58998;-71
2023/09/06 03:07:33;;;;;;;16.70;15.00;;;;;;;10.61;100.00;99722.80;109393;1250;58934;-71
2023/09/06 03:10:00;;;;;;;18.10;16.20;;;;;;;10.58;100.00;99724.20;109669;1250;66051;-71
2023/09/06 03:12:26;;;;;;;17.30;15.50;;;;;;;10.55;100.00;99726.11;109636;1250;59062;-71
2023/09/06 03:14:55;;;;;;;17.90;15.90;;;;;;;10.54;100.00;99724.41;109660;1250;59058;-71
2023/09/06 03:17:22;;;;;;;19.30;17.30;;;;;;;10.53;100.00;99722.48;109647;1250;58997;-71
2023/09/06 03:19:53;;;;;;;17.10;15.30;;;;;;;10.53;100.00;99717.88;109644;1250;58932;-70
2023/09/06 03:22:25;;;;;;;16.10;14.50;;;;;;;10.52;100.00;99714.19;109623;1250;66127;-71
2023/09/06 03:24:55;;;;;;;15.50;13.90;;;;;;;10.50;100.00;99713.77;109723;1250;60422;-71
2023/09/06 03:27:21;;;;;;;17.80;15.80;;;;;;;10.48;100.00;99713.70;109652;1250;65343;-71
2023/09/06 03:29:51;;;;;;;17.00;15.30;;;;;;;10.46;100.00;99715.08;109648;1250;58978;-71
2023/09/06 03:32:18;;;;;;;16.70;15.10;;;;;;;10.45;100.00;99716.92;109687;1250;59003;-71
2023/09/06 03:34:45;;;;;;;17.40;15.60;;;;;;;10.43;100.00;99717.35;109654;1250;64843;-71
2023/09/06 03:37:18;;;;;;;16.50;14.80;;;;;;;10.43;100.00;99720.73;109661;1250;60252;-71
2023/09/06 03:39:47;;;;;;;17.50;15.40;;;;;;;10.43;100.00;99724.84;109653;1250;64081;-71
2023/09/06 03:42:15;;;;;;;18.20;16.20;;;;;;;10.43;100.00;99725.56;109642;1250;58954;-71
2023/09/06 03:44:42;;;;;;;16.30;14.80;;;;;;;10.41;100.00;99728.30;109713;1250;58847;-71
2023/09/06 03:47:15;;;;;;;17.80;15.10;;;;;;;10.40;100.00;99727.83;109679;1251;66013;-71
2023/09/06 03:49:43;;;;;;;17.60;15.80;;;;;;;10.39;100.00;99727.89;109682;1250;58991;-71
2023/09/06 03:52:16;;;;;;;17.40;15.50;;;;;;;10.40;100.00;99728.36;109699;1250;63819;-71
2023/09/06 03:54:42;;;;;;;19.80;16.50;;;;;;;10.41;100.00;99720.30;109659;1250;58941;-71
2023/09/06 03:57:12;;;;;;;18.30;16.30;;;;;;;10.43;100.00;99721.66;109668;1250;58881;-71
2023/09/06 03:59:40;;;;;;;20.10;17.40;;;;;;;10.45;100.00;99723.67;109712;1250;66071;-71
2023/09/06 04:02:08;;;;;;;18.90;16.80;;;;;;;10.45;100.00;99726.14;109690;1250;59903;-71
2023/09/06 04:04:34;;;;;;;18.30;15.20;;;;;;;10.45;100.00;99720.43;109697;1250;64072;-71
2023/09/06 04:07:01;;;;;;;16.80;15.00;;;;;;;10.46;100.00;99718.65;109686;1250;59006;-71
2023/09/06 04:09:31;;;;;;;17.70;15.90;;;;;;;10.46;100.00;99716.11;109650;1250;58875;-71
2023/09/06 04:11:59;;;;;;;17.10;15.30;;;;;;;10.49;100.00;99715.80;109716;1250;66021;-70
2023/09/06 04:14:25;;;;;;;15.40;13.10;;;;;;;10.49;100.00;99718.28;109669;1250;60999;-70
2023/09/06 04:16:53;;;;;;;13.00;11.80;;;;;;;10.48;100.00;99719.58;109695;1250;64058;-70
2023/09/06 04:19:19;;;;;;;12.00;10.90;;;;;;;10.45;100.00;99716.91;109661;1250;59353;-70
2023/09/06 04:21:47;;;;;;;13.10;11.80;;;;;;;10.42;100.00;99718.10;109693;1250;58961;-70
2023/09/06 04:24:14;;;;;;;12.30;11.00;;;;;;;10.43;100.00;99715.58;109660;1250;65730;-71
2023/09/06 04:26:40;;;;;;;12.70;11.50;;;;;;;10.64;100.00;99720.64;109714;1250;59078;-71
2023/09/06 04:29:07;;;;;;;11.30;10.00;;;;;;;11.01;100.00;99719.84;109645;1250;59004;-71
2023/09/06 04:31:33;;;;;;;14.90;13.30;;;;;;;11.37;100.00;99713.13;109658;1250;59114;-71
2023/09/06 04:34:02;;;;;;;13.50;12.30;;;;;;;11.71;100.00;99711.81;109686;1250;59167;-72
2023/09/06 04:36:28;;;;;;;11.90;10.80;;;;;;;12.03;100.00;99711.09;109675;1250;64502;-72
2023/09/06 04:38:56;;;;;;;13.70;11.60;;;;;;;12.33;100.00;99714.45;109689;1250;60225;-71
2023/09/06 04:41:22;;;;;;;12.40;11.30;;;;;;;12.59;100.00;99716.35;109382;1251;64190;-70
2023/09/06 04:43:49;;;;;;;12.00;10.80;;;;;;;12.93;100.00;99719.00;109638;1250;58937;-70
2023/09/06 04:46:15;;;;;;;11.50;10.50;;;;;;;13.32;100.00;99725.37;109658;1250;59174;-71
2023/09/06 04:48:43;;;;;;;11.60;10.40;;;;;;;13.51;100.00;99729.27;109629;1250;64806;-71
2023/09/06 04:51:09;;;;;;;10.80;9.60;;;;;;;13.52;100.00;99726.90;109716;1250;60083;-71
2023/09/06 04:53:36;;;;;;;11.90;10.80;;;;;;;14.02;100.00;99725.11;109594;1250;64106;-71
2023/09/06 04:56:05;;;;;;;11.80;10.70;;;;;;;14.47;100.00;99725.71;109699;1250;58911;-72
2023/09/06 04:58:33;;;;;;;11.50;10.40;;;;;;;14.82;100.00;99728.91;109629;1250;58951;-72
2023/09/06 05:01:05;;;;;;;10.90;9.80;;;;;;;15.07;100.00;99733.00;109655;1250;66046;-72
2023/09/06 05:03:33;;;;;;;10.60;9.50;;;;;;;15.37;100.00;99739.20;109635;1250;60161;-72
2023/09/06 05:06:00;;;;;;;10.90;9.90;;;;;;;15.77;100.00;99739.91;109712;1250;64040;-72
2023/09/06 05:08:27;;;;;;;10.00;9.20;;;;;;;16.11;100.00;99734.44;109659;1250;59015;-71
2023/09/06 05:10:54;;;;;;;9.70;8.90;;;;;;;16.36;100.00;99734.44;109658;1250;59001;-71
2023/09/06 05:13:20;;;;;;;9.30;8.40;;;;;;;16.60;100.00;99738.64;109680;1250;65861;-71
2023/09/06 05:15:47;;;;;;;10.30;9.40;;;;;;;16.84;100.00;99738.16;109578;1251;60049;-71
2023/09/06 05:18:14;;;;;;;10.50;9.50;;;;;;;17.02;100.00;99740.88;109622;1250;62895;-71
2023/09/06 05:20:41;;;;;;;9.60;8.90;;;;;;;17.16;100.00;99741.85;109633;1250;58995;-71
2023/09/06 05:23:12;;;;;;;10.10;9.00;;;;;;;17.33;100.00;99744.56;109608;1250;59362;-71
2023/09/06 05:25:40;;;;;;;9.40;8.50;;;;;;;17.56;100.00;99745.91;109666;1250;66023;-71
2023/09/06 05:28:12;;;;;;;12.00;8.80;;;;;;;17.78;100.00;99749.27;109704;1250;60159;-71
2023/09/06 05:30:43;;;;;;;9.10;8.20;;;;;;;17.92;100.00;99751.36;109664;1250;63710;-71
2023/09/06 05:33:10;;;;;;;8.30;7.50;;;;;;;18.16;100.00;99757.20;109593;1250;58968;-71
2023/09/06 05:35:37;;;;;;;8.70;8.00;;;;;;;18.41;100.00;99758.65;109723;1250;58982;-71
2023/09/06 05:38:04;;;;;;;8.60;7.80;;;;;;;18.62;100.00;99762.67;109703;1250;64933;-72
2023/09/06 05:40:33;;;;;;;8.10;7.30;;;;;;;18.77;100.00;99764.45;109716;1250;60205;-72
2023/09/06 05:42:59;;;;;;;9.20;7.30;;;;;;;18.98;100.00;99763.89;109408;1250;64057;-72
2023/09/06 05:45:26;;;;;;;8.40;7.50;;;;;;;19.11;100.00;99767.56;109636;1250;58979;-72
2023/09/06 05:47:53;;;;;;;8.00;7.10;;;;;;;19.14;100.00;99765.88;109713;1250;58946;-72
2023/09/06 05:50:20;;;;;;;8.60;7.60;;;;;;;19.20;100.00;99767.10;109355;1251;66077;-71
2023/09/06 05:52:47;;;;;;;7.90;7.20;;;;;;;19.26;100.00;99773.91;109460;1250;60091;-72
2023/09/06 05:55:14;;;;;;;8.70;7.80;;;;;;;19.28;100.00;99774.63;109677;1250;64125;-71
2023/09/06 05:57:41;;;;;;;11.70;7.00;;;;;;;19.31;100.00;99774.06;109657;1250;59026;-71
2023/09/06 06:00:15;;;;;;;8.20;7.40;;;;;;;19.46;100.00;99770.16;109658;1250;59104;-71
2023/09/06 06:02:42;;;;;;;8.10;7.30;;;;;;;19.64;100.00;99770.45;109480;1251;75707;-71
2023/09/06 06:05:09;;;;;;;8.70;8.00;;;;;;;19.70;100.00;99772.60;109569;1250;59118;-72
2023/09/06 06:07:36;;;;;;;9.30;8.40;;;;;;;19.77;100.00;99771.69;109640;1250;62510;-71
2023/09/06 06:10:03;;;;;;;9.20;8.30;;;;;;;19.92;100.00;99772.23;109712;1250;58983;-71
2023/09/06 06:12:32;;;;;;;9.10;7.60;;;;;;;20.07;100.00;99768.84;109685;1250;58988;-71
2023/09/06 06:15:00;;;;;;;9.40;8.50;;;;;;;20.12;100.00;99771.63;109608;1250;65261;-71
2023/09/06 06:17:27;;;;;;;9.40;8.60;;;;;;;20.18;100.00;99775.07;109641;1250;59033;-71
2023/09/06 06:19:53;;;;;;;9.60;8.70;;;;;;;20.26;100.00;99773.92;109594;1252;63747;-71
2023/09/06 06:22:20;;;;;;;8.60;7.80;;;;;;;20.35;100.00;99769.22;109559;1252;58940;-71
2023/09/06 06:24:47;;;;;;;9.10;8.20;;;;;;;20.49;100.00;99772.45;109577;1253;59124;-71
2023/09/06 06:27:13;;;;;;;11.50;8.40;;;;;;;20.58;100.00;99768.55;109610;1252;66116;-71
2023/09/06 06:29:40;;;;;;;9.50;8.60;;;;;;;20.65;100.00;99766.63;109596;1252;60200;-71
2023/09/06 06:32:07;;;;;;;10.00;8.90;;;;;;;20.69;100.00;99766.27;109588;1252;64110;-71
2023/09/06 06:34:36;;;;;;;10.00;8.70;;;;;;;20.52;100.00;99767.66;109192;1253;59162;-71
2023/09/06 06:37:03;;;;;;;12.20;10.90;;;;;;;20.26;100.00;99777.70;109231;1252;58960;-71
2023/09/06 06:39:29;;;;;;;12.70;11.40;;;;;;;20.02;100.00;99777.25;109611;1253;64505;-71
2023/09/06 06:41:56;;;;;;;12.00;10.80;;;;;;;19.78;100.00;99776.92;109593;1253;60115;-72
2023/09/06 06:44:22;;;;;;;12.70;11.30;;;;;;;19.65;100.00;99776.13;109188;1252;64514;-70
2023/09/06 06:46:49;;;;;;;13.20;11.50;;;;;;;19.52;100.00;99778.08;109590;1252;58969;-72
2023/09/06 06:49:15;;;;;;;11.70;10.60;;;;;;;19.38;100.00;99775.35;109632;1253;59843;-72
2023/09/06 06:51:42;;;;;;;14.70;11.80;;;;;;;19.28;100.00;99776.24;109422;1252;194282;-72
2023/09/06 06:54:10;;;;;;;12.20;11.00;;;;;;;19.15;100.00;99771.83;109554;1253;58949;-72
2023/09/06 06:56:37;;;;;;;13.40;12.00;;;;;;;18.96;100.00;99771.48;109567;1253;64072;-72
2023/09/06 06:59:04;;;;;;;12.70;11.50;;;;;;;18.82;100.00;99775.20;109587;1252;59067;-71
2023/09/06 07:01:31;;;;;;;11.70;10.60;;;;;;;18.72;100.00;99773.48;109576;1251;58887;-71
2023/09/06 07:03:58;;;;;;;12.20;10.90;;;;;;;18.68;100.00;99773.33;109601;1252;65908;-71
2023/09/06 07:06:25;;;;;;;11.50;10.30;;;;;;;18.63;100.00;99767.65;109622;1252;59817;-71
2023/09/06 07:08:53;;;;;;;12.60;10.10;;;;;;;18.55;100.00;99766.92;109598;1252;64046;-70
2023/09/06 07:11:21;;;;;;;10.50;9.40;;;;;;;18.54;100.00;99769.55;109574;1252;58994;-70
2023/09/06 07:13:49;;;;;;;10.40;9.40;;;;;;;18.57;100.00;99770.38;109523;1252;59130;-71
2023/09/06 07:16:17;;;;;;;10.70;9.70;;;;;;;18.51;100.00;99771.63;109618;1253;65775;-70
2023/09/06 07:18:48;;;;;;;11.60;9.80;;;;;;;18.47;100.00;99766.97;109608;1252;59832;-71
2023/09/06 07:21:15;;;;;;;10.60;9.60;;;;;;;18.46;100.00;99772.20;109601;1251;64238;-71
2023/09/06 07:23:42;;;;;;;10.80;9.80;;;;;;;18.53;100.00;99774.82;109607;1252;59624;-72
2023/09/06 07:26:09;;;;;;;10.60;9.10;;;;;;;18.64;100.00;99774.58;109197;1252;59484;-72
2023/09/06 07:28:39;;;;;;;10.60;9.50;;;;;;;18.72;100.00;99773.39;109544;1253;65734;-72
2023/09/06 07:31:07;;;;;;;10.50;9.30;;;;;;;18.79;100.00;99773.43;109573;1253;59030;-72
2023/09/06 07:33:34;;;;;;;11.40;9.40;;;;;;;18.86;100.00;99776.98;109611;1252;65181;-71
2023/09/06 07:36:01;;;;;;;11.30;9.70;;;;;;;18.93;100.00;99779.06;109538;1252;59019;-71
2023/09/06 07:38:28;;;;;;;11.80;9.80;;;;;;;18.97;100.00;99775.69;109604;1252;58922;-72
2023/09/06 07:40:56;;;;;;;11.30;10.10;;;;;;;18.99;100.00;99773.52;109218;1251;67162;-72
2023/09/06 07:43:25;;;;;;;11.20;9.60;;;;;;;19.09;100.00;99774.74;109548;1252;58954;-71
2023/09/06 07:45:52;;;;;;;10.30;9.00;;;;;;;19.19;100.00;99777.82;109582;1253;63806;-72
2023/09/06 07:48:19;;;;;;;11.30;10.00;;;;;;;19.25;100.00;99780.17;109561;1252;58932;-71
2023/09/06 07:50:47;;;;;;;10.40;9.30;;;;;;;19.27;100.00;99780.33;109556;1253;58915;-72
2023/09/06 07:53:13;;;;;;;10.10;9.10;;;;;;;19.30;100.00;99778.65;109631;1251;64831;-72
2023/09/06 07:55:44;;;;;;;11.40;10.20;;;;;;;19.31;100.00;99782.69;109580;1253;60107;-72
2023/09/06 07:58:10;;;;;;;10.10;9.10;;;;;;;19.35;100.00;99784.14;109536;1253;64033;-72
2023/09/06 08:00:37;;;;;;;10.00;8.90;;;;;;;19.41;100.00;99782.86;109546;1252;59052;-71
2023/09/06 08:03:04;;;;;;;9.40;8.50;;;;;;;19.52;100.00;99779.47;109593;1252;58964;-72
2023/09/06 08:05:32;;;;;;;9.60;8.70;;;;;;;19.62;100.00;99779.11;109209;1253;66310;-73
2023/09/06 08:07:59;;;;;;;9.20;7.90;;;;;;;19.71;100.00;99777.21;109628;1253;59880;-72
2023/09/06 08:10:25;;;;;;;9.70;8.70;;;;;;;19.84;100.00;99778.73;109224;1251;63832;-72
2023/09/06 08:12:52;;;;;;;9.50;8.50;;;;;;;19.98;100.00;99778.15;109184;1252;59002;-72
2023/09/06 08:15:18;;;;;;;9.30;8.40;;;;;;;20.10;100.00;99772.29;109616;1252;59111;-72
2023/09/06 08:17:47;;;;;;;8.70;7.80;;;;;;;20.20;100.00;99769.42;109570;1253;64807;-72
2023/09/06 08:20:15;;;;;;;9.50;8.60;;;;;;;20.26;100.00;99769.23;109619;1252;60261;-72
2023/09/06 08:22:45;;;;;;;11.20;8.70;;;;;;;20.31;100.00;99768.71;109604;1252;64050;-70
2023/09/06 08:25:13;;;;;;;9.10;8.20;;;;;;;20.36;100.00;99765.89;109602;1253;59097;-71
2023/09/06 08:27:40;;;;;;;9.40;8.30;;;;;;;20.43;100.00;99767.63;109567;1253;58971;-71
2023/09/06 08:30:12;;;;;;;12.40;8.80;;;;;;;20.52;100.00;99773.61;109618;1251;65734;-71
2023/09/06 08:32:43;;;;;;;8.50;7.70;;;;;;;20.59;100.00;99773.49;109606;1252;60063;-71
2023/09/06 08:35:13;;;;;;;8.90;8.10;;;;;;;20.67;100.00;99775.59;109585;1252;62489;-71
2023/09/06 08:37:41;;;;;;;9.50;8.60;;;;;;;20.78;100.00;99778.38;109541;1253;59088;-71
2023/09/06 08:40:08;;;;;;;10.10;9.20;;;;;;;20.82;100.00;99779.95;109539;1253;59030;-71
2023/09/06 08:42:35;;;;;;;10.40;8.90;;;;;;;20.85;100.00;99782.72;109566;1252;66049;-71
2023/09/06 08:45:05;;;;;;;9.50;8.60;;;;;;;20.89;100.00;99784.16;109584;1251;60145;-71
2023/09/06 08:47:32;;;;;;;9.70;8.80;;;;;;;20.97;100.00;99780.23;109567;1252;64132;-71
2023/09/06 08:49:59;;;;;;;9.60;8.70;;;;;;;21.03;100.00;99778.77;109305;1252;59053;-71
2023/09/06 08:52:28;;;;;;;10.10;9.20;;;;;;;21.09;100.00;99775.13;109566;1252;59004;-71
2023/09/06 08:54:54;;;;;;;10.00;7.80;;;;;;;21.18;100.00;99773.91;109603;1253;64542;-71
2023/09/06 08:57:21;;;;;;;8.70;7.90;;;;;;;21.29;100.00;99773.52;109567;1252;58975;-71
2023/09/06 08:59:48;;;;;;;9.00;8.00;;;;;;;21.37;100.00;99769.98;109562;1253;63045;-71
2023/09/06 09:02:16;;;;;;;8.80;7.90;;;;;;;21.47;100.00;99767.20;109465;1252;59428;-71
2023/09/06 09:04:43;;;;;;;10.70;8.00;;;;;;;21.60;100.00;99768.11;109240;1252;59100;-71
2023/09/06 09:07:10;;;;;;;8.50;7.70;;;;;;;21.73;100.00;99770.38;109583;1253;66058;-71
2023/09/06 09:10:16;;;;;;;9.10;7.10;;;;;;;21.87;100.00;99774.06;109614;1253;59239;-71
2023/09/06 09:12:43;;;;;;;8.30;7.40;;;;;;;22.00;100.00;99773.83;108911;1260;64076;-71
2023/09/06 09:15:10;;;;;;;7.60;7.00;;;;;;;22.14;100.00;99772.77;108756;1267;59439;-71
2023/09/06 09:17:38;;;;;;;9.20;7.30;;;;;;;22.27;100.00;99777.04;108881;1260;59474;-70
2023/09/06 09:20:05;;;;;;;6.90;6.20;;;;;;;22.40;100.00;99771.30;108980;1260;64590;-71
2023/09/06 09:22:37;;;;;;;8.70;7.60;;;;;;;22.44;100.00;99773.23;108932;1260;59297;-71
2023/09/06 09:25:17;;;;;;;8.50;6.60;;;;;;;22.41;100.00;99771.61;108911;1260;62834;-71
2023/09/06 09:27:51;;;;;;;7.60;6.90;;;;;;;22.47;100.00;99771.50;108905;1260;59111;-71
2023/09/06 09:30:18;;;;;;;8.00;7.10;;;;;;;22.53;100.00;99773.23;108957;1260;59008;-71
2023/09/06 09:32:46;;;;;;;7.20;6.50;;;;;;;22.53;100.00;99767.02;108762;1260;66169;-71
2023/09/06 09:35:13;;;;;;;7.60;6.80;;;;;;;22.61;100.00;99770.21;108911;1261;58983;-71
2023/09/06 09:37:51;;;;;;;9.40;6.90;;;;;;;22.70;100.00;99769.27;108903;1260;63791;-71
2023/09/06 09:40:20;;;;;;;8.60;7.80;;;;;;;22.72;100.00;99771.03;108902;1261;59067;-71
2023/09/06 09:42:58;;;;;;;7.90;7.20;;;;;;;22.72;100.00;99772.00;108856;1252;59133;-71
2023/09/06 09:45:26;;;;;;;8.00;7.00;;;;;;;22.79;100.00;99770.30;109568;1254;74796;-71
2023/09/06 09:47:53;;;;;;;7.20;6.60;;;;;;;22.89;100.00;99767.80;109586;1252;59066;-71
2023/09/06 09:50:22;;;;;;;7.20;6.50;;;;;;;22.93;100.00;99764.43;109582;1253;65265;-71
2023/09/06 09:52:49;;;;;;;7.20;6.60;;;;;;;22.97;100.00;99768.44;109539;1252;58969;-71
2023/09/06 09:55:16;;;;;;;8.10;6.10;;;;;;;23.03;100.00;99770.92;109562;1252;59054;-71
2023/09/06 09:57:44;;;;;;;6.90;6.10;;;;;;;23.11;100.00;99769.52;109578;1252;65344;-71
2023/09/06 10:00:13;;;;;;;7.10;6.40;;;;;;;23.15;100.00;99769.77;109588;1252;60193;-71
2023/09/06 10:02:45;;;;;;;7.70;6.20;;;;;;;23.14;100.00;99770.61;109581;1252;63959;-71
2023/09/06 10:05:16;;;;;;;6.30;5.80;;;;;;;23.16;100.00;99771.85;109579;1251;58997;-71
2023/09/06 10:07:43;;;;;;;6.50;5.90;;;;;;;23.17;100.00;99774.98;109623;1253;58974;-71
2023/09/06 10:10:12;;;;;;;7.20;5.70;;;;;;;23.20;100.00;99775.17;109590;1252;66105;-71
2023/09/06 10:12:44;;;;;;;6.00;5.40;;;;;;;23.30;100.00;99774.17;109597;1253;60309;-71
2023/09/06 10:15:15;;;;;;;6.30;5.80;;;;;;;23.31;100.00;99774.39;109575;1253;62845;-71
2023/09/06 10:17:42;;;;;;;6.60;6.00;;;;;;;23.32;100.00;99774.27;109535;1252;58988;-71
2023/09/06 10:20:15;;;;;;;6.70;5.90;;;;;;;23.36;100.00;99774.56;109538;1251;59112;-71
2023/09/06 10:22:48;;;;;;;6.00;5.20;;;;;;;23.37;100.00;99773.20;109592;1254;64835;-71
2023/09/06 10:25:16;;;;;;;6.10;5.10;;;;;;;23.42;100.00;99771.63;109633;1253;59023;-71
2023/09/06 10:27:46;;;;;;;5.90;5.40;;;;;;;23.52;100.00;99771.78;109588;1252;63864;-71
2023/09/06 10:30:20;;;;;;;5.30;4.90;;;;;;;23.66;100.00;99766.60;109615;1254;58941;-71
2023/09/06 10:32:47;;;;;;;5.90;5.30;;;;;;;23.80;100.00;99763.52;109593;1252;59008;-71
2023/09/06 10:35:41;;;;;;;6.40;5.80;;;;;;;23.93;100.00;99762.64;109662;1251;65839;-71
2023/09/06 10:38:18;;;;;;;5.70;5.10;;;;;;;24.04;100.00;99762.77;108960;1260;59939;-71
2023/09/06 10:40:47;;;;;;;6.30;5.80;;;;;;;24.11;100.00;99761.48;108914;1260;70629;-71
2023/09/06 10:43:14;;;;;;;6.20;5.80;;;;;;;24.20;100.00;99759.09;108918;1260;59407;-71
2023/09/06 10:45:54;;;;;;;7.70;5.50;;;;;;;24.29;100.00;99760.00;108949;1261;59011;-71
2023/09/06 10:48:21;;;;;;;6.10;5.50;;;;;;;24.42;100.00;99757.45;108893;1261;66098;-71
2023/09/06 10:51:04;;;;;;;5.90;5.40;;;;;;;24.51;100.00;99757.52;108922;1261;60153;-71
2023/09/06 10:53:30;;;;;;;6.70;6.00;;;;;;;24.60;100.00;99755.13;108907;1261;62927;-71
2023/09/06 10:55:59;;;;;;;6.60;6.00;;;;;;;24.70;100.00;99751.63;108881;1262;59004;-71
2023/09/06 10:58:28;;;;;;;8.00;5.70;;;;;;;24.80;100.00;99751.38;108906;1260;59045;-71
2023/09/06 11:01:13;;;;;;;7.80;6.40;;;;;;;24.89;100.00;99750.86;108900;1260;66099;-71
2023/09/06 11:03:41;;;;;;;6.40;5.80;;;;;;;24.94;100.00;99754.32;108910;1260;59894;-71
2023/09/06 11:06:09;;;;;;;6.10;5.40;;;;;;;24.94;100.00;99752.70;108914;1260;62880;-71
2023/09/06 11:08:35;;;;;;;7.30;6.20;;;;;;;24.94;100.00;99752.85;108878;1260;59000;-71
2023/09/06 11:11:05;;;;;;;6.50;5.90;;;;;;;24.96;100.00;99755.09;108964;1260;59139;-71
2023/09/06 11:13:33;;;;;;;6.80;6.20;;;;;;;25.03;100.00;99749.11;108927;1260;64552;-70